sensor_id;sensor_type;location;lat;lon;timestamp;pressure;altitude;pressure_sealevel;temperature
11321;BMP180;5715;48.234;14.320;2023-05-07T00:01:16;98511.00;;;21.70
11321;BMP180;5715;48.234;14.320;2023-05-07T00:04:06;98510.00;;;21.70
11321;BMP180;5715;48.234;14.320;2023-05-07T00:06:55;98520.00;;;21.90
11321;BMP180;5715;48.234;14.320;2023-05-07T00:09:43;98511.00;;;21.50
11321;BMP180;5715;48.234;14.320;2023-05-07T00:12:30;98509.00;;;21.20
11321;BMP180;5715;48.234;14.320;2023-05-07T00:15:21;98521.00;;;21.10
11321;BMP180;5715;48.234;14.320;2023-05-07T00:18:08;98526.00;;;21.00
11321;BMP180;5715;48.234;14.320;2023-05-07T00:20:56;98528.00;;;20.80
11321;BMP180;5715;48.234;14.320;2023-05-07T00:23:44;98527.00;;;20.70
11321;BMP180;5715;48.234;14.320;2023-05-07T00:26:31;98537.00;;;20.60
11321;BMP180;5715;48.234;14.320;2023-05-07T00:29:19;98544.00;;;20.60
11321;BMP180;5715;48.234;14.320;2023-05-07T00:32:06;98530.00;;;20.40
11321;BMP180;5715;48.234;14.320;2023-05-07T00:34:55;98538.00;;;20.40
11321;BMP180;5715;48.234;14.320;2023-05-07T00:37:42;98538.00;;;20.30
11321;BMP180;5715;48.234;14.320;2023-05-07T00:40:30;98536.00;;;20.20
11321;BMP180;5715;48.234;14.320;2023-05-07T00:43:17;98534.00;;;20.20
11321;BMP180;5715;48.234;14.320;2023-05-07T00:46:05;98536.00;;;20.10
11321;BMP180;5715;48.234;14.320;2023-05-07T00:48:54;98537.00;;;20.00
11321;BMP180;5715;48.234;14.320;2023-05-07T00:51:42;98526.00;;;20.00
11321;BMP180;5715;48.234;14.320;2023-05-07T00:54:29;98531.00;;;20.00
11321;BMP180;5715;48.234;14.320;2023-05-07T00:57:17;98535.00;;;19.90
11321;BMP180;5715;48.234;14.320;2023-05-07T01:00:07;98535.00;;;19.90
11321;BMP180;5715;48.234;14.320;2023-05-07T01:02:56;98526.00;;;19.90
11321;BMP180;5715;48.234;14.320;2023-05-07T01:05:48;98535.00;;;19.90
11321;BMP180;5715;48.234;14.320;2023-05-07T01:08:37;98543.00;;;19.90
11321;BMP180;5715;48.234;14.320;2023-05-07T01:11:26;98543.00;;;19.90
11321;BMP180;5715;48.234;14.320;2023-05-07T01:14:14;98546.00;;;19.90
11321;BMP180;5715;48.234;14.320;2023-05-07T01:17:02;98544.00;;;19.90
11321;BMP180;5715;48.234;14.320;2023-05-07T01:19:50;98541.00;;;20.00
11321;BMP180;5715;48.234;14.320;2023-05-07T01:22:40;98545.00;;;19.90
11321;BMP180;5715;48.234;14.320;2023-05-07T01:25:29;98541.00;;;20.00
11321;BMP180;5715;48.234;14.320;2023-05-07T01:28:17;98536.00;;;20.00
11321;BMP180;5715;48.234;14.320;2023-05-07T01:31:05;98547.00;;;20.00
11321;BMP180;5715;48.234;14.320;2023-05-07T01:33:55;98542.00;;;20.00
11321;BMP180;5715;48.234;14.320;2023-05-07T01:36:45;98540.00;;;20.00
11321;BMP180;5715;48.234;14.320;2023-05-07T01:39:33;98543.00;;;20.10
11321;BMP180;5715;48.234;14.320;2023-05-07T01:42:22;98539.00;;;20.20
11321;BMP180;5715;48.234;14.320;2023-05-07T01:45:10;98539.00;;;20.10
11321;BMP180;5715;48.234;14.320;2023-05-07T01:47:59;98540.00;;;20.00
11321;BMP180;5715;48.234;14.320;2023-05-07T01:50:47;98538.00;;;20.00
11321;BMP180;5715;48.234;14.320;2023-05-07T01:53:37;98538.00;;;19.90
11321;BMP180;5715;48.234;14.320;2023-05-07T01:56:25;98539.00;;;19.90
11321;BMP180;5715;48.234;14.320;2023-05-07T01:59:13;98534.00;;;19.90
11321;BMP180;5715;48.234;14.320;2023-05-07T02:02:00;98530.00;;;19.90
11321;BMP180;5715;48.234;14.320;2023-05-07T02:04:48;98526.00;;;19.80
11321;BMP180;5715;48.234;14.320;2023-05-07T02:07:36;98527.00;;;19.80
11321;BMP180;5715;48.234;14.320;2023-05-07T02:10:23;98528.00;;;19.70
11321;BMP180;5715;48.234;14.320;2023-05-07T02:13:11;98522.00;;;19.60
11321;BMP180;5715;48.234;14.320;2023-05-07T02:15:58;98529.00;;;19.60
11321;BMP180;5715;48.234;14.320;2023-05-07T02:18:46;98523.00;;;19.60
11321;BMP180;5715;48.234;14.320;2023-05-07T02:21:33;98536.00;;;19.50
11321;BMP180;5715;48.234;14.320;2023-05-07T02:24:21;98538.00;;;19.60
11321;BMP180;5715;48.234;14.320;2023-05-07T02:27:08;98535.00;;;19.50
11321;BMP180;5715;48.234;14.320;2023-05-07T02:29:56;98538.00;;;19.50
11321;BMP180;5715;48.234;14.320;2023-05-07T02:32:44;98526.00;;;19.40
11321;BMP180;5715;48.234;14.320;2023-05-07T02:35:32;98537.00;;;19.40
11321;BMP180;5715;48.234;14.320;2023-05-07T02:38:19;98524.00;;;19.40
11321;BMP180;5715;48.234;14.320;2023-05-07T02:41:06;98536.00;;;19.30
11321;BMP180;5715;48.234;14.320;2023-05-07T02:43:54;98534.00;;;19.40
11321;BMP180;5715;48.234;14.320;2023-05-07T02:46:41;98521.00;;;19.40
11321;BMP180;5715;48.234;14.320;2023-05-07T02:49:29;98526.00;;;19.40
11321;BMP180;5715;48.234;14.320;2023-05-07T02:52:16;98527.00;;;19.30
11321;BMP180;5715;48.234;14.320;2023-05-07T02:55:05;98523.00;;;19.50
11321;BMP180;5715;48.234;14.320;2023-05-07T02:57:52;98524.00;;;19.40
11321;BMP180;5715;48.234;14.320;2023-05-07T03:00:40;98528.00;;;19.30
11321;BMP180;5715;48.234;14.320;2023-05-07T03:03:27;98534.00;;;19.50
11321;BMP180;5715;48.234;14.320;2023-05-07T03:06:15;98541.00;;;19.30
11321;BMP180;5715;48.234;14.320;2023-05-07T03:09:02;98539.00;;;19.40
11321;BMP180;5715;48.234;14.320;2023-05-07T03:11:50;98537.00;;;19.30
11321;BMP180;5715;48.234;14.320;2023-05-07T03:14:38;98541.00;;;19.40
11321;BMP180;5715;48.234;14.320;2023-05-07T03:17:26;98540.00;;;19.30
11321;BMP180;5715;48.234;14.320;2023-05-07T03:20:14;98541.00;;;19.30
11321;BMP180;5715;48.234;14.320;2023-05-07T03:23:02;98550.00;;;19.30
11321;BMP180;5715;48.234;14.320;2023-05-07T03:25:50;98552.00;;;19.40
11321;BMP180;5715;48.234;14.320;2023-05-07T03:28:37;98551.00;;;19.50
11321;BMP180;5715;48.234;14.320;2023-05-07T03:31:25;98544.00;;;19.40
11321;BMP180;5715;48.234;14.320;2023-05-07T03:34:12;98550.00;;;19.40
11321;BMP180;5715;48.234;14.320;2023-05-07T03:37:00;98549.00;;;19.40
11321;BMP180;5715;48.234;14.320;2023-05-07T03:39:48;98554.00;;;19.50
11321;BMP180;5715;48.234;14.320;2023-05-07T03:42:35;98559.00;;;19.80
11321;BMP180;5715;48.234;14.320;2023-05-07T03:45:23;98558.00;;;19.80
11321;BMP180;5715;48.234;14.320;2023-05-07T03:48:10;98556.00;;;19.60
11321;BMP180;5715;48.234;14.320;2023-05-07T03:50:58;98557.00;;;19.80
11321;BMP180;5715;48.234;14.320;2023-05-07T03:53:46;98567.00;;;19.80
11321;BMP180;5715;48.234;14.320;2023-05-07T03:56:34;98569.00;;;20.10
11321;BMP180;5715;48.234;14.320;2023-05-07T03:59:22;98571.00;;;20.00
11321;BMP180;5715;48.234;14.320;2023-05-07T04:02:09;98564.00;;;19.90
11321;BMP180;5715;48.234;14.320;2023-05-07T04:04:57;98575.00;;;20.00
11321;BMP180;5715;48.234;14.320;2023-05-07T04:07:44;98575.00;;;20.20
11321;BMP180;5715;48.234;14.320;2023-05-07T04:10:32;98588.00;;;20.30
11321;BMP180;5715;48.234;14.320;2023-05-07T04:13:19;98588.00;;;20.30
11321;BMP180;5715;48.234;14.320;2023-05-07T04:16:07;98586.00;;;20.40
11321;BMP180;5715;48.234;14.320;2023-05-07T04:18:55;98588.00;;;20.50
11321;BMP180;5715;48.234;14.320;2023-05-07T04:21:43;98596.00;;;20.90
11321;BMP180;5715;48.234;14.320;2023-05-07T04:24:34;98593.00;;;20.80
11321;BMP180;5715;48.234;14.320;2023-05-07T04:27:21;98585.00;;;21.00
11321;BMP180;5715;48.234;14.320;2023-05-07T04:30:09;98586.00;;;21.10
11321;BMP180;5715;48.234;14.320;2023-05-07T04:32:57;98588.00;;;21.80
11321;BMP180;5715;48.234;14.320;2023-05-07T04:35:45;98591.00;;;22.00
11321;BMP180;5715;48.234;14.320;2023-05-07T04:38:33;98595.00;;;22.00
11321;BMP180;5715;48.234;14.320;2023-05-07T04:41:20;98594.00;;;22.10
11321;BMP180;5715;48.234;14.320;2023-05-07T04:44:08;98596.00;;;22.10
11321;BMP180;5715;48.234;14.320;2023-05-07T04:46:56;98593.00;;;22.10
11321;BMP180;5715;48.234;14.320;2023-05-07T04:49:44;98601.00;;;22.20
11321;BMP180;5715;48.234;14.320;2023-05-07T04:52:32;98601.00;;;21.90
11321;BMP180;5715;48.234;14.320;2023-05-07T04:55:19;98618.00;;;22.20
11321;BMP180;5715;48.234;14.320;2023-05-07T04:58:08;98618.00;;;22.10
11321;BMP180;5715;48.234;14.320;2023-05-07T05:00:56;98612.00;;;22.00
11321;BMP180;5715;48.234;14.320;2023-05-07T05:03:43;98617.00;;;22.50
11321;BMP180;5715;48.234;14.320;2023-05-07T05:06:31;98621.00;;;22.70
11321;BMP180;5715;48.234;14.320;2023-05-07T05:09:19;98622.00;;;22.80
11321;BMP180;5715;48.234;14.320;2023-05-07T05:12:07;98622.00;;;23.00
11321;BMP180;5715;48.234;14.320;2023-05-07T05:14:54;98628.00;;;23.50
11321;BMP180;5715;48.234;14.320;2023-05-07T05:17:42;98631.00;;;24.00
11321;BMP180;5715;48.234;14.320;2023-05-07T05:20:29;98629.00;;;24.50
11321;BMP180;5715;48.234;14.320;2023-05-07T05:23:17;98636.00;;;25.00
11321;BMP180;5715;48.234;14.320;2023-05-07T05:26:05;98638.00;;;25.80
11321;BMP180;5715;48.234;14.320;2023-05-07T05:28:52;98641.00;;;26.30
11321;BMP180;5715;48.234;14.320;2023-05-07T05:31:40;98638.00;;;27.00
11321;BMP180;5715;48.234;14.320;2023-05-07T05:34:29;98646.00;;;27.20
11321;BMP180;5715;48.234;14.320;2023-05-07T05:37:16;98636.00;;;27.40
11321;BMP180;5715;48.234;14.320;2023-05-07T05:40:04;98646.00;;;27.30
11321;BMP180;5715;48.234;14.320;2023-05-07T05:42:52;98644.00;;;26.60
11321;BMP180;5715;48.234;14.320;2023-05-07T05:45:40;98648.00;;;26.20
11321;BMP180;5715;48.234;14.320;2023-05-07T05:48:29;98638.00;;;26.20
11321;BMP180;5715;48.234;14.320;2023-05-07T05:51:16;98640.00;;;26.30
11321;BMP180;5715;48.234;14.320;2023-05-07T05:54:04;98634.00;;;26.60
11321;BMP180;5715;48.234;14.320;2023-05-07T05:56:51;98644.00;;;26.30
11321;BMP180;5715;48.234;14.320;2023-05-07T05:59:39;98643.00;;;25.50
11321;BMP180;5715;48.234;14.320;2023-05-07T06:02:27;98640.00;;;24.70
11321;BMP180;5715;48.234;14.320;2023-05-07T06:05:15;98644.00;;;24.60
11321;BMP180;5715;48.234;14.320;2023-05-07T06:08:03;98641.00;;;24.20
11321;BMP180;5715;48.234;14.320;2023-05-07T06:10:50;98640.00;;;24.70
11321;BMP180;5715;48.234;14.320;2023-05-07T06:13:38;98632.00;;;24.10
11321;BMP180;5715;48.234;14.320;2023-05-07T06:16:26;98635.00;;;24.10
11321;BMP180;5715;48.234;14.320;2023-05-07T06:19:13;98627.00;;;24.20
11321;BMP180;5715;48.234;14.320;2023-05-07T06:22:01;98630.00;;;24.00
11321;BMP180;5715;48.234;14.320;2023-05-07T06:24:49;98624.00;;;24.40
11321;BMP180;5715;48.234;14.320;2023-05-07T06:27:37;98639.00;;;24.80
11321;BMP180;5715;48.234;14.320;2023-05-07T06:30:26;98637.00;;;24.50
11321;BMP180;5715;48.234;14.320;2023-05-07T06:33:14;98634.00;;;24.60
11321;BMP180;5715;48.234;14.320;2023-05-07T06:36:02;98641.00;;;24.40
11321;BMP180;5715;48.234;14.320;2023-05-07T06:38:49;98651.00;;;24.60
11321;BMP180;5715;48.234;14.320;2023-05-07T06:41:37;98643.00;;;24.40
11321;BMP180;5715;48.234;14.320;2023-05-07T06:44:25;98641.00;;;24.90
11321;BMP180;5715;48.234;14.320;2023-05-07T06:47:12;98646.00;;;24.40
11321;BMP180;5715;48.234;14.320;2023-05-07T06:50:02;98659.00;;;24.60
11321;BMP180;5715;48.234;14.320;2023-05-07T06:52:50;98652.00;;;25.20
11321;BMP180;5715;48.234;14.320;2023-05-07T06:55:37;98653.00;;;25.40
11321;BMP180;5715;48.234;14.320;2023-05-07T06:58:25;98663.00;;;25.20
11321;BMP180;5715;48.234;14.320;2023-05-07T07:01:12;98664.00;;;24.70
11321;BMP180;5715;48.234;14.320;2023-05-07T07:04:00;98671.00;;;25.20
11321;BMP180;5715;48.234;14.320;2023-05-07T07:06:48;98659.00;;;25.30
11321;BMP180;5715;48.234;14.320;2023-05-07T07:09:35;98676.00;;;25.40
11321;BMP180;5715;48.234;14.320;2023-05-07T07:12:23;98656.00;;;25.30
11321;BMP180;5715;48.234;14.320;2023-05-07T07:15:13;98658.00;;;25.50
11321;BMP180;5715;48.234;14.320;2023-05-07T07:18:01;98654.00;;;25.40
11321;BMP180;5715;48.234;14.320;2023-05-07T07:20:49;98661.00;;;25.60
11321;BMP180;5715;48.234;14.320;2023-05-07T07:23:36;98648.00;;;25.50
11321;BMP180;5715;48.234;14.320;2023-05-07T07:26:24;98652.00;;;25.70
11321;BMP180;5715;48.234;14.320;2023-05-07T07:29:11;98653.00;;;25.80
11321;BMP180;5715;48.234;14.320;2023-05-07T07:31:59;98661.00;;;25.90
11321;BMP180;5715;48.234;14.320;2023-05-07T07:34:50;98655.00;;;25.70
11321;BMP180;5715;48.234;14.320;2023-05-07T07:37:37;98651.00;;;25.80
11321;BMP180;5715;48.234;14.320;2023-05-07T07:40:25;98653.00;;;26.20
11321;BMP180;5715;48.234;14.320;2023-05-07T07:43:13;98651.00;;;26.00
11321;BMP180;5715;48.234;14.320;2023-05-07T07:46:01;98646.00;;;26.10
11321;BMP180;5715;48.234;14.320;2023-05-07T07:48:48;98650.00;;;26.30
11321;BMP180;5715;48.234;14.320;2023-05-07T07:51:36;98646.00;;;26.00
11321;BMP180;5715;48.234;14.320;2023-05-07T07:54:23;98649.00;;;26.20
11321;BMP180;5715;48.234;14.320;2023-05-07T07:57:11;98645.00;;;26.10
11321;BMP180;5715;48.234;14.320;2023-05-07T07:59:58;98647.00;;;25.90
11321;BMP180;5715;48.234;14.320;2023-05-07T08:02:46;98642.00;;;25.90
11321;BMP180;5715;48.234;14.320;2023-05-07T08:05:34;98646.00;;;26.00
11321;BMP180;5715;48.234;14.320;2023-05-07T08:08:22;98649.00;;;26.50
11321;BMP180;5715;48.234;14.320;2023-05-07T08:11:10;98646.00;;;26.30
11321;BMP180;5715;48.234;14.320;2023-05-07T08:13:58;98659.00;;;26.70
11321;BMP180;5715;48.234;14.320;2023-05-07T08:16:45;98665.00;;;26.90
11321;BMP180;5715;48.234;14.320;2023-05-07T08:19:33;98661.00;;;26.90
11321;BMP180;5715;48.234;14.320;2023-05-07T08:22:20;98665.00;;;27.20
11321;BMP180;5715;48.234;14.320;2023-05-07T08:25:11;98663.00;;;27.00
11321;BMP180;5715;48.234;14.320;2023-05-07T08:27:59;98659.00;;;27.30
11321;BMP180;5715;48.234;14.320;2023-05-07T08:30:47;98658.00;;;27.80
11321;BMP180;5715;48.234;14.320;2023-05-07T08:33:34;98666.00;;;27.60
11321;BMP180;5715;48.234;14.320;2023-05-07T08:36:25;98661.00;;;27.40
11321;BMP180;5715;48.234;14.320;2023-05-07T08:39:13;98663.00;;;28.00
11321;BMP180;5715;48.234;14.320;2023-05-07T08:42:01;98660.00;;;27.90
11321;BMP180;5715;48.234;14.320;2023-05-07T08:44:54;98658.00;;;28.10
11321;BMP180;5715;48.234;14.320;2023-05-07T08:47:47;98657.00;;;27.70
11321;BMP180;5715;48.234;14.320;2023-05-07T08:50:38;98657.00;;;27.40
11321;BMP180;5715;48.234;14.320;2023-05-07T08:53:26;98654.00;;;28.10
11321;BMP180;5715;48.234;14.320;2023-05-07T08:56:14;98648.00;;;27.80
11321;BMP180;5715;48.234;14.320;2023-05-07T08:59:02;98655.00;;;28.40
11321;BMP180;5715;48.234;14.320;2023-05-07T09:01:51;98651.00;;;28.90
11321;BMP180;5715;48.234;14.320;2023-05-07T09:04:38;98659.00;;;28.80
11321;BMP180;5715;48.234;14.320;2023-05-07T09:07:26;98664.00;;;29.10
11321;BMP180;5715;48.234;14.320;2023-05-07T09:10:14;98665.00;;;29.20
11321;BMP180;5715;48.234;14.320;2023-05-07T09:13:03;98656.00;;;29.20
11321;BMP180;5715;48.234;14.320;2023-05-07T09:15:51;98656.00;;;28.90
11321;BMP180;5715;48.234;14.320;2023-05-07T09:18:44;98669.00;;;29.10
11321;BMP180;5715;48.234;14.320;2023-05-07T09:21:33;98661.00;;;29.30
11321;BMP180;5715;48.234;14.320;2023-05-07T09:24:21;98657.00;;;28.70
11321;BMP180;5715;48.234;14.320;2023-05-07T09:27:08;98657.00;;;29.10
11321;BMP180;5715;48.234;14.320;2023-05-07T09:29:58;98649.00;;;29.10
11321;BMP180;5715;48.234;14.320;2023-05-07T09:32:46;98648.00;;;28.60
11321;BMP180;5715;48.234;14.320;2023-05-07T09:35:33;98645.00;;;29.40
11321;BMP180;5715;48.234;14.320;2023-05-07T09:38:21;98645.00;;;29.00
11321;BMP180;5715;48.234;14.320;2023-05-07T09:41:12;98646.00;;;29.20
11321;BMP180;5715;48.234;14.320;2023-05-07T09:44:00;98640.00;;;29.20
11321;BMP180;5715;48.234;14.320;2023-05-07T09:46:54;98649.00;;;28.80
11321;BMP180;5715;48.234;14.320;2023-05-07T09:49:46;98650.00;;;29.10
11321;BMP180;5715;48.234;14.320;2023-05-07T09:52:36;98644.00;;;29.40
11321;BMP180;5715;48.234;14.320;2023-05-07T09:55:26;98652.00;;;28.90
11321;BMP180;5715;48.234;14.320;2023-05-07T09:58:18;98646.00;;;28.90
11321;BMP180;5715;48.234;14.320;2023-05-07T10:01:06;98648.00;;;29.30
11321;BMP180;5715;48.234;14.320;2023-05-07T10:03:55;98645.00;;;29.40
11321;BMP180;5715;48.234;14.320;2023-05-07T10:06:45;98638.00;;;30.00
11321;BMP180;5715;48.234;14.320;2023-05-07T10:09:34;98645.00;;;30.30
11321;BMP180;5715;48.234;14.320;2023-05-07T10:12:26;98642.00;;;30.20
11321;BMP180;5715;48.234;14.320;2023-05-07T10:15:14;98636.00;;;30.60
11321;BMP180;5715;48.234;14.320;2023-05-07T10:18:04;98640.00;;;30.20
11321;BMP180;5715;48.234;14.320;2023-05-07T10:20:54;98630.00;;;30.10
11321;BMP180;5715;48.234;14.320;2023-05-07T10:23:51;98638.00;;;30.70
11321;BMP180;5715;48.234;14.320;2023-05-07T10:26:48;98631.00;;;30.60
11321;BMP180;5715;48.234;14.320;2023-05-07T10:32:56;98625.00;;;30.70
11321;BMP180;5715;48.234;14.320;2023-05-07T10:35:58;98620.00;;;30.90
11321;BMP180;5715;48.234;14.320;2023-05-07T10:38:46;98609.00;;;30.30
11321;BMP180;5715;48.234;14.320;2023-05-07T10:41:34;98614.00;;;30.50
11321;BMP180;5715;48.234;14.320;2023-05-07T10:44:27;98619.00;;;29.90
11321;BMP180;5715;48.234;14.320;2023-05-07T10:47:17;98606.00;;;29.90
11321;BMP180;5715;48.234;14.320;2023-05-07T10:53:21;98611.00;;;30.00
11321;BMP180;5715;48.234;14.320;2023-05-07T11:02:11;98604.00;;;30.80
11321;BMP180;5715;48.234;14.320;2023-05-07T11:05:23;98600.00;;;30.70
11321;BMP180;5715;48.234;14.320;2023-05-07T11:08:11;98603.00;;;30.90
11321;BMP180;5715;48.234;14.320;2023-05-07T11:10:59;98601.00;;;30.50
11321;BMP180;5715;48.234;14.320;2023-05-07T11:13:48;98598.00;;;30.90
11321;BMP180;5715;48.234;14.320;2023-05-07T11:16:40;98595.00;;;30.60
11321;BMP180;5715;48.234;14.320;2023-05-07T11:19:54;98605.00;;;30.40
11321;BMP180;5715;48.234;14.320;2023-05-07T11:22:42;98599.00;;;30.30
11321;BMP180;5715;48.234;14.320;2023-05-07T11:25:30;98602.00;;;30.70
11321;BMP180;5715;48.234;14.320;2023-05-07T11:28:18;98602.00;;;30.90
11321;BMP180;5715;48.234;14.320;2023-05-07T11:31:06;98608.00;;;30.80
11321;BMP180;5715;48.234;14.320;2023-05-07T11:33:55;98593.00;;;31.10
11321;BMP180;5715;48.234;14.320;2023-05-07T11:36:43;98595.00;;;31.00
11321;BMP180;5715;48.234;14.320;2023-05-07T11:39:33;98595.00;;;30.30
11321;BMP180;5715;48.234;14.320;2023-05-07T11:42:29;98595.00;;;31.30
11321;BMP180;5715;48.234;14.320;2023-05-07T11:45:24;98598.00;;;31.20
11321;BMP180;5715;48.234;14.320;2023-05-07T11:48:15;98599.00;;;30.60
11321;BMP180;5715;48.234;14.320;2023-05-07T11:51:07;98597.00;;;30.70
11321;BMP180;5715;48.234;14.320;2023-05-07T11:53:59;98588.00;;;31.00
11321;BMP180;5715;48.234;14.320;2023-05-07T11:56:46;98582.00;;;31.40
11321;BMP180;5715;48.234;14.320;2023-05-07T11:59:40;98593.00;;;31.20
11321;BMP180;5715;48.234;14.320;2023-05-07T12:02:28;98586.00;;;31.00
11321;BMP180;5715;48.234;14.320;2023-05-07T12:05:16;98579.00;;;31.20
11321;BMP180;5715;48.234;14.320;2023-05-07T12:08:03;98580.00;;;31.40
11321;BMP180;5715;48.234;14.320;2023-05-07T12:10:51;98587.00;;;31.40
11321;BMP180;5715;48.234;14.320;2023-05-07T12:13:40;98577.00;;;31.60
11321;BMP180;5715;48.234;14.320;2023-05-07T12:16:29;98590.00;;;31.70
11321;BMP180;5715;48.234;14.320;2023-05-07T12:19:17;98583.00;;;31.40
11321;BMP180;5715;48.234;14.320;2023-05-07T12:22:08;98580.00;;;31.70
11321;BMP180;5715;48.234;14.320;2023-05-07T12:24:59;98583.00;;;31.80
11321;BMP180;5715;48.234;14.320;2023-05-07T12:27:52;98579.00;;;32.00
11321;BMP180;5715;48.234;14.320;2023-05-07T12:30:41;98580.00;;;32.00
11321;BMP180;5715;48.234;14.320;2023-05-07T12:33:29;98579.00;;;31.30
11321;BMP180;5715;48.234;14.320;2023-05-07T12:36:18;98578.00;;;32.00
11321;BMP180;5715;48.234;14.320;2023-05-07T12:39:09;98566.00;;;32.50
11321;BMP180;5715;48.234;14.320;2023-05-07T12:41:59;98567.00;;;32.60
11321;BMP180;5715;48.234;14.320;2023-05-07T12:44:47;98569.00;;;32.20
11321;BMP180;5715;48.234;14.320;2023-05-07T12:47:35;98569.00;;;31.80
11321;BMP180;5715;48.234;14.320;2023-05-07T12:50:23;98557.00;;;32.00
11321;BMP180;5715;48.234;14.320;2023-05-07T12:53:12;98560.00;;;32.60
11321;BMP180;5715;48.234;14.320;2023-05-07T12:55:59;98572.00;;;32.20
11321;BMP180;5715;48.234;14.320;2023-05-07T12:58:49;98563.00;;;31.60
11321;BMP180;5715;48.234;14.320;2023-05-07T13:01:37;98559.00;;;31.80
11321;BMP180;5715;48.234;14.320;2023-05-07T13:04:25;98562.00;;;31.90
11321;BMP180;5715;48.234;14.320;2023-05-07T13:07:13;98558.00;;;31.90
11321;BMP180;5715;48.234;14.320;2023-05-07T13:10:00;98557.00;;;31.90
11321;BMP180;5715;48.234;14.320;2023-05-07T13:12:48;98555.00;;;32.00
11321;BMP180;5715;48.234;14.320;2023-05-07T13:15:36;98559.00;;;31.60
11321;BMP180;5715;48.234;14.320;2023-05-07T13:18:26;98545.00;;;31.60
11321;BMP180;5715;48.234;14.320;2023-05-07T13:21:13;98542.00;;;32.20
11321;BMP180;5715;48.234;14.320;2023-05-07T13:24:01;98542.00;;;32.20
11321;BMP180;5715;48.234;14.320;2023-05-07T13:26:48;98538.00;;;31.70
11321;BMP180;5715;48.234;14.320;2023-05-07T13:29:36;98546.00;;;31.90
11321;BMP180;5715;48.234;14.320;2023-05-07T13:32:23;98537.00;;;31.80
11321;BMP180;5715;48.234;14.320;2023-05-07T13:35:11;98530.00;;;31.80
11321;BMP180;5715;48.234;14.320;2023-05-07T13:37:59;98528.00;;;31.70
11321;BMP180;5715;48.234;14.320;2023-05-07T13:40:47;98517.00;;;31.60
11321;BMP180;5715;48.234;14.320;2023-05-07T13:43:34;98523.00;;;31.80
11321;BMP180;5715;48.234;14.320;2023-05-07T13:46:22;98526.00;;;31.80
11321;BMP180;5715;48.234;14.320;2023-05-07T13:49:10;98526.00;;;31.60
11321;BMP180;5715;48.234;14.320;2023-05-07T13:51:58;98531.00;;;31.60
11321;BMP180;5715;48.234;14.320;2023-05-07T13:54:45;98523.00;;;32.30
11321;BMP180;5715;48.234;14.320;2023-05-07T13:57:33;98530.00;;;32.10
11321;BMP180;5715;48.234;14.320;2023-05-07T14:00:20;98526.00;;;31.70
11321;BMP180;5715;48.234;14.320;2023-05-07T14:03:08;98516.00;;;32.20
11321;BMP180;5715;48.234;14.320;2023-05-07T14:05:59;98515.00;;;31.70
11321;BMP180;5715;48.234;14.320;2023-05-07T14:08:48;98519.00;;;31.50
11321;BMP180;5715;48.234;14.320;2023-05-07T14:11:36;98522.00;;;31.60
11321;BMP180;5715;48.234;14.320;2023-05-07T14:14:23;98529.00;;;31.40
11321;BMP180;5715;48.234;14.320;2023-05-07T14:17:11;98529.00;;;31.60
11321;BMP180;5715;48.234;14.320;2023-05-07T14:19:58;98528.00;;;31.50
11321;BMP180;5715;48.234;14.320;2023-05-07T14:22:46;98524.00;;;31.10
11321;BMP180;5715;48.234;14.320;2023-05-07T14:25:33;98525.00;;;31.90
11321;BMP180;5715;48.234;14.320;2023-05-07T14:28:21;98529.00;;;31.40
11321;BMP180;5715;48.234;14.320;2023-05-07T14:31:08;98530.00;;;31.20
11321;BMP180;5715;48.234;14.320;2023-05-07T14:33:57;98543.00;;;31.20
11321;BMP180;5715;48.234;14.320;2023-05-07T14:36:45;98541.00;;;30.40
11321;BMP180;5715;48.234;14.320;2023-05-07T14:39:32;98543.00;;;30.70
11321;BMP180;5715;48.234;14.320;2023-05-07T14:42:20;98538.00;;;30.30
11321;BMP180;5715;48.234;14.320;2023-05-07T14:45:08;98539.00;;;30.70
11321;BMP180;5715;48.234;14.320;2023-05-07T14:47:57;98547.00;;;31.10
11321;BMP180;5715;48.234;14.320;2023-05-07T14:50:47;98547.00;;;30.80
11321;BMP180;5715;48.234;14.320;2023-05-07T14:53:35;98541.00;;;30.60
11321;BMP180;5715;48.234;14.320;2023-05-07T14:56:23;98545.00;;;30.90
11321;BMP180;5715;48.234;14.320;2023-05-07T14:59:10;98555.00;;;30.70
11321;BMP180;5715;48.234;14.320;2023-05-07T15:01:59;98545.00;;;31.10
11321;BMP180;5715;48.234;14.320;2023-05-07T15:04:46;98555.00;;;31.00
11321;BMP180;5715;48.234;14.320;2023-05-07T15:07:34;98550.00;;;31.30
11321;BMP180;5715;48.234;14.320;2023-05-07T15:10:22;98555.00;;;31.00
11321;BMP180;5715;48.234;14.320;2023-05-07T15:13:11;98553.00;;;31.10
11321;BMP180;5715;48.234;14.320;2023-05-07T15:16:02;98548.00;;;30.10
11321;BMP180;5715;48.234;14.320;2023-05-07T15:18:50;98554.00;;;30.50
11321;BMP180;5715;48.234;14.320;2023-05-07T15:21:37;98557.00;;;30.30
11321;BMP180;5715;48.234;14.320;2023-05-07T15:24:25;98553.00;;;30.60
11321;BMP180;5715;48.234;14.320;2023-05-07T15:27:12;98558.00;;;30.40
11321;BMP180;5715;48.234;14.320;2023-05-07T15:30:00;98561.00;;;30.00
11321;BMP180;5715;48.234;14.320;2023-05-07T15:32:48;98558.00;;;29.70
11321;BMP180;5715;48.234;14.320;2023-05-07T15:35:36;98564.00;;;29.70
11321;BMP180;5715;48.234;14.320;2023-05-07T15:38:25;98558.00;;;29.40
11321;BMP180;5715;48.234;14.320;2023-05-07T15:41:13;98564.00;;;29.70
11321;BMP180;5715;48.234;14.320;2023-05-07T15:44:00;98571.00;;;28.80
11321;BMP180;5715;48.234;14.320;2023-05-07T15:46:48;98566.00;;;28.80
11321;BMP180;5715;48.234;14.320;2023-05-07T15:49:36;98571.00;;;29.00
11321;BMP180;5715;48.234;14.320;2023-05-07T15:52:24;98578.00;;;29.10
11321;BMP180;5715;48.234;14.320;2023-05-07T15:55:12;98576.00;;;28.80
11321;BMP180;5715;48.234;14.320;2023-05-07T15:58:00;98566.00;;;28.90
11321;BMP180;5715;48.234;14.320;2023-05-07T16:00:48;98573.00;;;28.80
11321;BMP180;5715;48.234;14.320;2023-05-07T16:03:35;98581.00;;;29.10
11321;BMP180;5715;48.234;14.320;2023-05-07T16:06:25;98576.00;;;28.60
11321;BMP180;5715;48.234;14.320;2023-05-07T16:09:14;98587.00;;;28.60
11321;BMP180;5715;48.234;14.320;2023-05-07T16:12:03;98584.00;;;28.30
11321;BMP180;5715;48.234;14.320;2023-05-07T16:14:51;98583.00;;;28.30
11321;BMP180;5715;48.234;14.320;2023-05-07T16:17:38;98579.00;;;28.50
11321;BMP180;5715;48.234;14.320;2023-05-07T16:20:28;98573.00;;;28.20
11321;BMP180;5715;48.234;14.320;2023-05-07T16:23:19;98574.00;;;27.60